Portada
METAR-TAF:

METAR-TAF

Aeroports :

Barra do Garças, Mato Grosso, Brasil

latitud: 15-52S, longitud: 052-23W, altitud: 350 m

Observació

L'informe es va fer fa 4 hores i 27 minuts, a les 20:00 UTC
Temperatura 34°C
Humitat 32%
Pressió
Visibilitat 10 km o més
sense núvols per sota de 1500 mi sense presència de cumulonimbus.

METAR: SBBW 122000Z /////KT CAVOK 34/15 Q////

Hora: 20:27 (00:27 UTC)

Pronòstic

L'informe es va fer fa 9 hores i 27 minuts, a les 15:00 UTC
Pronòstic vàlid del 12 a les 18 UTC al 13 a les 06 UTC
Vent kt del Nord
Visibilitat 10 km o més
Escasses núvols a una alçada de 2500 ft
Evolucionant progressivament
l' 12 a les 19 UTC al 12 a les 21 UTC
Visibilitat 10 km o més
sense núvols per sota de 1500 mi sense presència de cumulonimbus.

TAF: SBBW 121500Z 1218/1306 00000KT 9999 FEW025 TX34/1218Z TN17/1305Z BECMG 1219/1221 CAVOK RMK PDL

Observacions i pronòstics meteorològics de més de 4000 aeroports (METAR i TAF).

Les estacions disponibles són els punts grocs i vermells al mapa.

Posi el ratolí al punt desitjat per veure el nom de l'estació.

Feu clic per veure les observacions i els pronòstics meteorològics.

Per canviar el mapa: feu clic els botons verds amb una creu de color negre per apropar; al botó verd amb un guió per allunyar la imatge; o en les fletxes verdes per a mapes adjacents.


METAR-TAF: